Date,TemperatureHighF,TemperatureAvgF,TemperatureLowF,DewpointHighF,DewpointAvgF,DewpointLowF,HumidityHigh,HumidityAvg,HumidityLow,PressureMaxIn,PressureMinIn,WindSpeedMaxMPH,WindSpeedAvgMPH,GustSpeedMaxMPH,PrecipitationSumIn
2013-3-1,29.5,20.1,14.7,16.7,11.9,6.8,79,70,58,29.47,29.34,17,3,17,0.00
2013-3-2,26.8,17.7,12.6,15.8,10.1,5.7,77,72,62,29.50,29.34,11,3,11,0.00
2013-3-3,26.4,14.0,-1.8,16.3,7.2,-6.7,81,74,64,29.34,29.28,14,2,14,0.00
2013-3-4,28.8,13.1,-4.2,16.2,4.9,-8.9,81,70,52,29.41,29.33,13,1,13,0.00
2013-3-5,31.3,18.2,1.4,21.6,11.8,-3.5,82,76,65,29.41,29.26,19,5,19,0.00
2013-3-6,39.0,31.5,26.4,30.2,25.6,20.5,82,78,69,29.51,29.31,16,4,16,0.00
2013-3-7,29.3,26.2,23.9,21.7,19.9,18.1,83,77,69,29.69,29.51,11,2,11,0.00
2013-3-8,40.5,25.7,12.7,29.7,19.8,8.6,83,78,63,29.76,29.63,12,1,12,0.00
2013-3-9,45.0,31.6,15.4,30.6,22.2,11.1,83,70,49,29.63,29.22,11,3,11,0.22
2013-3-10,40.8,37.9,35.6,33.1,30.8,27.3,81,75,70,29.22,29.05,8,3,8,0.30
2013-3-12,23.4,23.2,21.6,16.7,16.5,15.3,76,75,75,29.10,29.07,0,0,0,0.00
2013-3-13,28.9,23.0,17.2,21.6,16.3,12.2,83,75,62,29.44,29.08,14,2,14,0.00
2013-3-14,34.7,27.6,17.1,22.8,19.5,12.2,82,72,55,29.48,29.22,13,3,13,0.00
2013-3-15,32.4,28.6,20.3,25.2,19.9,10.9,81,70,62,29.23,29.11,17,6,17,0.00
2013-3-16,25.9,19.8,14.4,15.8,12.2,6.4,82,72,56,29.27,29.16,15,4,15,0.00
2013-3-17,26.8,19.3,12.7,16.5,8.5,5.2,82,63,46,29.58,29.27,19,5,19,0.00
2013-3-18,40.1,25.8,14.2,24.6,16.9,5.9,80,69,46,29.47,28.75,21,6,21,0.03
2013-3-19,29.8,25.1,21.6,22.8,19.0,16.0,79,77,74,29.07,28.70,25,8,25,0.03
2013-3-20,26.2,22.5,19.6,19.0,16.7,14.7,83,78,66,29.12,28.87,19,6,19,0.00
2013-3-21,26.6,24.9,23.4,22.1,19.1,17.8,83,78,76,29.19,29.05,17,5,21,0.00
2013-3-22,33.4,28.1,23.9,25.9,22.1,18.1,82,78,69,29.31,29.16,16,4,16,0.00
2013-3-23,38.3,31.0,25.9,26.8,23.8,20.7,82,75,59,29.37,29.30,11,2,11,0.00
2013-3-24,34.9,29.5,21.6,26.4,20.6,16.3,82,70,54,29.35,29.10,17,4,17,0.00
2013-3-25,38.5,33.1,24.6,27.5,25.0,17.2,80,72,62,29.26,29.08,18,5,18,0.00
2013-3-26,41.9,34.9,30.6,31.5,26.9,24.4,82,73,51,29.39,29.26,15,3,15,0.00
2013-3-27,43.0,34.2,26.2,30.4,26.7,21.2,82,75,58,29.48,29.36,16,4,16,0.00
2013-3-28,46.2,36.0,27.3,30.7,26.0,19.9,82,68,48,29.54,29.46,18,2,18,0.00
2013-3-29,47.3,32.9,18.9,29.3,21.1,14.4,82,64,39,29.55,29.48,11,2,11,0.00
2013-3-30,51.4,36.8,19.6,35.2,22.4,14.7,82,59,33,29.48,29.06,18,3,18,0.06
2013-3-31,42.4,36.6,27.0,35.2,28.8,19.4,80,73,67,29.06,28.83,27,6,27,0.16